TFM - Tactical Decision Aid
ID: Runway Winds: CIG/VIS Threshold:

KRWL - Rawlins Muni, WY, US

Updated at: 1447 UTC 27 Nov 2021
Latest TAF at: 1140 UTC 27 Nov 2021

TAF Board

Time1353Z 27/15Z 27/16Z 27/17Z 27/18Z 27/19Z 27/20Z 27/21Z 27/22Z 27/23Z 28/00Z 28/01Z 28/02Z 28/03Z>>
Type OBS PRVL PRVL PRVL PRVL PRVL PRVL PRVL PRVL PRVL PRVL PRVL PRVL PRVL
VIS 10 >6 >6 >6 >6 >6 >6 >6 >6 >6 >6 >6 >6 >6
CIG -- -- -- -- 250 250 250 250 250 250 250 250 250 250
Cover CLR FEW FEW FEW BKN BKN BKN BKN BKN BKN BKN BKN BKN BKN
FltCat VFR VFR VFR VFR VFR VFR VFR VFR VFR VFR VFR VFR VFR VFR
WX -- -- -- -- -- -- -- -- -- -- -- -- -- --
WDir -- 250 250 250 260 260 260 260 260 250 250 250 250 250
WSpd -- 7 7 7 12 12 12 12 12 10 10 10 10 10
WGst -- -- -- -- 18 18 18 18 18 -- -- -- -- --
WSHgt -- -- -- -- -- -- -- -- -- -- -- -- -- --
WSDir -- -- -- -- -- -- -- -- -- -- -- -- -- --
WSSpd -- -- -- -- -- -- -- -- -- -- -- -- -- --

TDA Impact Legend

  None Marginal Slight Moderate High
Visibility (sm) >5 3≤X≤5 2≤X<3 1.25≤X<2 <1.25
Ceiling (100 ft) >30 10≤X≤30 9≤X<10 4≤X<9 <4
Wind Speed (kt) <15 15≤X<25 25≤X<30 ≥30
Wind Gust (kt) <15 15≤X<25 25≤X<35 ≥35
Weather No Wx Reported VCTS -TS,-FZRA TS,FZRA +TS,+FZRA
TAF
KRWL 271140Z 2712/2812 25007KT P6SM FEW250
  FM271800 26012G18KT P6SM BKN250
  FM272300 25010KT P6SM BKN250


METAR
KRWL 271353Z AUTO 10SM CLR 00/M12 A3023 RMK AO2 SLP232 T00001122
KRWL 271253Z AUTO 23010KT 10SM CLR M01/M13 A3021 RMK AO2 SLP226 T10061133
KRWL 271153Z AUTO 26014G26KT 10SM CLR 01/M14 A3021 RMK AO2 PK WND 25026/1144 SLP218 T00061139 10033 21006 53008

Radar Display
Forecast Discussion